ADDS METAR Data INFO
IDs: Format: Raw Decoded Include TAF

Data at: 0103 UTC 24 Jun 2018

PAEM 240056Z AUTO 00000KT 6SM HZ FEW023 SCT031 OVC048 11/06 A3014 RMK AO2 SLP265 T01110061
PAEM 232356Z AUTO 26006KT 10SM SCT022 OVC036 10/07 A3014 RMK AO2 RAB38E50 SLP265 P0000 60000 T01000067 10111 20083 53002
PAEM 232349Z AUTO 24006KT 10SM -RA BKN022 BKN034 OVC040 10/07 A3014 RMK AO2 RAB38 P0000
PAEM 232317Z AUTO 21004KT 10SM FEW020 SCT026 OVC040 11/06 A3013 RMK AO2
PAEM 232256Z AUTO 33004KT 10SM SCT021 BKN026 OVC032 11/06 A3013 RMK AO2 SLP264 T01110061
PAEM 232253Z AUTO 32005KT 10SM SCT021 BKN026 OVC032 11/06 A3013 RMK AO2
PAEM 232223Z AUTO 19008KT 10SM FEW019 BKN042 OVC055 11/06 A3013 RMK AO2
PAEM 232156Z AUTO 22005KT 10SM BKN022 BKN030 OVC035 11/06 A3013 RMK AO2 SLP264 T01060056
PAEM 232145Z AUTO 20006KT 10SM BKN020 BKN035 OVC044 11/06 A3013 RMK AO2
PAEM 232111Z AUTO 24005KT 10SM FEW019 BKN036 OVC047 10/06 A3013 RMK AO2
PAEM 232056Z AUTO 22005KT 10SM FEW009 BKN016 OVC027 10/07 A3013 RMK AO2 RAE44 SLP263 P0000 60000 T01000067 51005
PAEM 232049Z AUTO 24006KT 10SM SCT007 BKN014 OVC021 09/07 A3013 RMK AO2 RAE44 P0000
PAEM 232026Z AUTO 24006KT 5SM -RA BR BKN007 OVC012 09/07 A3013 RMK AO2 CIG 005V009 P0000
PAEM 231956Z AUTO 22007KT 3SM -RA BR FEW008 BKN012 OVC017 09/08 A3013 RMK AO2 RAB46 SLP262 P0000 T00890078
PAEM 231922Z AUTO 21009KT 10SM BKN015 BKN020 OVC039 10/07 A3012 RMK AO2
PAEM 231915Z AUTO 20007KT 6SM BR BKN013 BKN027 OVC039 09/07 A3012 RMK AO2
PAEM 231856Z AUTO 20008KT 10SM OVC039 09/06 A3012 RMK AO2 SLP260 T00940061
PAEM 231829Z AUTO 18009KT 10SM SCT014 SCT024 OVC043 09/07 A3012 RMK AO2
PAEM 231756Z AUTO 17010KT 10SM OVC010 09/06 A3011 RMK AO2 SLP258 T00940061 10094 20078 51006
PAEM 231727Z AUTO 18010KT 10SM BKN010 OVC046 09/07 A3011 RMK AO2
PAEM 231656Z AUTO 17008KT 10SM FEW010 OVC048 09/07 A3011 RMK AO2 SLP256 T00890072
PAEM 231556Z AUTO 17007KT 10SM OVC046 09/07 A3010 RMK AO2 SLP254 T00890067
PAEM 231456Z AUTO 17008KT 10SM OVC042 08/07 A3009 RMK AO2 SLP251 T00830067 51005
PAEM 231356Z AUTO 18008KT 10SM OVC042 08/07 A3009 RMK AO2 SLP250 T00830067
PAEM 231256Z AUTO 16006KT 10SM OVC040 08/06 A3009 RMK AO2 SLP248 T00830061
PAEM 231156Z AUTO 17005KT 10SM OVC040 08/07 A3008 RMK AO2 SLP246 70001 T00780067 10117 20067 51010
PAEM 231056Z AUTO 17005KT 10SM FEW018 08/06 A3007 RMK AO2 SLP244 T00780061
PAEM 230956Z AUTO 17007KT 10SM OVC044 08/06 A3006 RMK AO2 SLP240 T00830061
PAEM 230856Z AUTO 18006KT 10SM FEW049 08/06 A3005 RMK AO2 SLP236 T00780056 53013
PAEM 230756Z AUTO 19008KT 10SM OVC049 11/04 A3003 RMK AO2 SLP231 T01060044 401280083
PAEM 230656Z AUTO 19009KT 10SM FEW035 OVC049 11/05 A3002 RMK AO2 SLP225 T01060050
PAEM 230556Z AUTO 20011G19KT 10SM FEW043 12/04 A3001 RMK AO2 SLP222 60001 T01170044 10128 20106 51011
PAEM 230456Z AUTO 21014KT 10SM OVC043 12/06 A3000 RMK AO2 SLP219 T01220056
PAEM 230356Z AUTO 17013G19KT 10SM BKN041 OVC048 11/05 A2999 RMK AO2 SLP217 T01110050
PAEM 230256Z AUTO 19015KT 10SM OVC042 12/05 A2998 RMK AO2 SLP211 60001 T01170050 51010
PAEM 230156Z AUTO 18012G18KT 10SM FEW026 SCT036 OVC044 11/06 A2997 RMK AO2 SLP209 P0001 T01110056
PAEM 230139Z AUTO 19013KT 10SM SCT026 BKN034 OVC042 11/06 A2997 RMK AO2 P0001
PAEM 230125Z AUTO 18016KT 10SM BKN026 OVC036 11/06 A2997 RMK AO2 P0001
PAEM 230056Z AUTO 19015G21KT 10SM SCT026 BKN034 OVC048 11/06 A2996 RMK AO2 SLP206 T01110061
PAEM 230036Z AUTO 18013G23KT 10SM FEW019 SCT028 OVC036 11/06 A2996 RMK AO2
PAEM 230009Z AUTO 18017G20KT 10SM SCT021 BKN026 OVC055 11/07 A2995 RMK AO2
PAEM 222356Z AUTO 20014G23KT 10SM FEW027 SCT040 OVC055 11/07 A2995 RMK AO2 SLP201 60000 T01060072 10117 20089 51012
PAEM 222256Z AUTO 18016KT 10SM FEW027 SCT034 OVC042 12/06 A2994 RMK AO2 PK WND 18026/2243 SLP199 T01170061
PAEM 222156Z AUTO 18014G22KT 10SM BKN031 OVC041 11/06 A2993 RMK AO2 RAE2059 SLP193 P0000 T01110061
PAEM 222056Z AUTO 17012G19KT 10SM -RA SCT039 BKN055 10/06 A2991 RMK AO2 SLP189 P0000 60000 T01000061 53009
PAEM 221956Z AUTO 19010G20KT 10SM -RA SCT020 OVC044 09/07 A2990 RMK AO2 RAB44 SLP184 P0000 T00940067
PAEM 221942Z AUTO 15015KT 10SM BKN022 BKN039 OVC048 11/07 A2989 RMK AO2
PAEM 221927Z AUTO 16013KT 10SM SCT020 OVC039 11/07 A2989 RMK AO2
PAEM 221914Z AUTO 17010G18KT 10SM BKN022 BKN030 OVC037 10/07 A2989 RMK AO2
PAEM 221903Z AUTO 16012KT 10SM SCT018 BKN030 OVC035 10/07 A2989 RMK AO2
PAEM 221856Z AUTO 14013KT 10SM SCT018 BKN028 OVC035 10/07 A2988 RMK AO2 SLP179 T01000067
PAEM 221840Z AUTO 15014KT 10SM SCT018 BKN026 OVC037 10/07 A2988 RMK AO2
PAEM 221803Z AUTO 15014KT 10SM SCT015 10/07 A2987 RMK AO2
PAEM 221756Z AUTO 15016KT 10SM BKN015 10/07 A2987 RMK AO2 SLP175 T01000067 10100 20083 53005
PAEM 221734Z AUTO 15014KT 10SM BKN015 BKN022 10/07 A2987 RMK AO2
PAEM 221656Z AUTO 14012KT 10SM FEW011 SCT028 09/07 A2986 RMK AO2 SLP171 T00940067
PAEM 221652Z AUTO 15012KT 10SM FEW011 SCT018 09/07 A2986 RMK AO2
PAEM 221645Z AUTO 15010KT 10SM SCT011 BKN018 09/07 A2986 RMK AO2
PAEM 221556Z AUTO 16011KT 10SM BKN013 08/07 A2986 RMK AO2 SLP169 T00830072
PAEM 221551Z AUTO 16011KT 10SM BKN013 09/07 A2985 RMK AO2
PAEM 221542Z AUTO 15012KT 10SM BKN015 09/07 A2985 RMK AO2
PAEM 221531Z AUTO 15013KT 10SM SCT015 BKN060 09/07 A2984 RMK AO2
PAEM 221522Z AUTO 15011KT 10SM BKN015 BKN060 09/07 A2984 RMK AO2
PAEM 221456Z AUTO 16009KT 10SM BKN042 BKN050 OVC060 09/07 A2984 RMK AO2 SLP163 T00890072 51015
PAEM 221413Z AUTO 17009KT 10SM SCT015 BKN110 08/07 A2983 RMK AO2
PAEM 221356Z AUTO 17010KT 10SM BKN015 OVC110 09/08 A2982 RMK AO2 SLP159 T00890078
PAEM 221330Z AUTO 18011KT 10SM OVC015 09/08 A2982 RMK AO2